SWR4WP LSZH-EDDL
Flight info
| Callsign | SWR4WP |
|---|---|
| Flight time | 0h 53m |
| Altitude | 32000 |
| Route | DEGES Z1 ETAGO DCT HAREM/N0492F330 DCT LOHRE/N0494F320 Z850 ADEMI T854 DOMUX DOMUX1A |
| Aircraft | A359/H-SDE2E3GHIJ3J4J5LM1ORWXY/LB1D1 |
Departure
| Time | 2026-05-05 18:59 |
|---|---|
| Airport | Zürich Airport (LSZH) |
Arrival
| Time | 2026-05-05 19:53 |
|---|---|
| Airport | Düsseldorf Airport (EDDL) |
| Time | Latitude | Longitude | Altitude | Speed | Heading |
|---|---|---|---|---|---|
| 2026-05-05 18:27 | 47.45029 | 8.55856 | 1413 ft | 0 kts | 6° |
| 2026-05-05 18:39 | 47.45005 | 8.55853 | 1415 ft | 4 kts | 6° |
| 2026-05-05 18:40 | 47.44979 | 8.55851 | 1415 ft | 4 kts | 347° |
| 2026-05-05 18:40 | 47.44956 | 8.55867 | 1416 ft | 4 kts | 309° |
| 2026-05-05 18:40 | 47.44946 | 8.55897 | 1413 ft | 2 kts | 276° |
| 2026-05-05 18:40 | 47.44946 | 8.55898 | 1413 ft | 2 kts | 276° |
| 2026-05-05 18:42 | 47.44946 | 8.55891 | 1413 ft | 3 kts | 277° |
| 2026-05-05 18:43 | 47.44952 | 8.55806 | 1414 ft | 11 kts | 274° |
| 2026-05-05 18:43 | 47.44965 | 8.55686 | 1411 ft | 10 kts | 300° |
| 2026-05-05 18:43 | 47.45027 | 8.55626 | 1415 ft | 14 kts | 335° |
| 2026-05-05 18:43 | 47.45127 | 8.55558 | 1414 ft | 17 kts | 335° |
| 2026-05-05 18:44 | 47.45243 | 8.55478 | 1417 ft | 15 kts | 334° |
| 2026-05-05 18:44 | 47.45251 | 8.55473 | 1417 ft | 0 kts | 334° |
| 2026-05-05 18:47 | 47.45287 | 8.55447 | 1416 ft | 8 kts | 335° |
| 2026-05-05 18:48 | 47.45359 | 8.55398 | 1416 ft | 14 kts | 335° |
| 2026-05-05 18:48 | 47.45437 | 8.55385 | 1415 ft | 8 kts | 23° |
| 2026-05-05 18:48 | 47.45496 | 8.55415 | 1414 ft | 9 kts | 1° |
| 2026-05-05 18:48 | 47.45574 | 8.55373 | 1409 ft | 18 kts | 335° |
| 2026-05-05 18:49 | 47.45658 | 8.55340 | 1414 ft | 6 kts | 29° |
| 2026-05-05 18:49 | 47.45668 | 8.55440 | 1409 ft | 11 kts | 96° |
| 2026-05-05 18:49 | 47.45660 | 8.55560 | 1417 ft | 13 kts | 96° |
| 2026-05-05 18:49 | 47.45648 | 8.55710 | 1418 ft | 18 kts | 96° |
| 2026-05-05 18:50 | 47.45636 | 8.55892 | 1417 ft | 18 kts | 96° |
| 2026-05-05 18:50 | 47.45622 | 8.56090 | 1420 ft | 20 kts | 96° |
| 2026-05-05 18:50 | 47.45606 | 8.56305 | 1422 ft | 22 kts | 96° |
| 2026-05-05 18:50 | 47.45590 | 8.56535 | 1425 ft | 23 kts | 96° |
| 2026-05-05 18:51 | 47.45579 | 8.56694 | 1427 ft | 11 kts | 96° |
| 2026-05-05 18:51 | 47.45577 | 8.56728 | 1426 ft | 0 kts | 96° |
| 2026-05-05 18:52 | 47.45575 | 8.56756 | 1428 ft | 7 kts | 95° |
| 2026-05-05 18:53 | 47.45569 | 8.56835 | 1426 ft | 3 kts | 96° |
| 2026-05-05 18:53 | 47.45569 | 8.56836 | 1426 ft | 0 kts | 96° |
| 2026-05-05 18:53 | 47.45568 | 8.56850 | 1426 ft | 0 kts | 96° |
| 2026-05-05 18:54 | 47.45564 | 8.56907 | 1427 ft | 7 kts | 96° |
| 2026-05-05 18:54 | 47.45564 | 8.56910 | 1427 ft | 0 kts | 96° |
| 2026-05-05 18:56 | 47.45564 | 8.56912 | 1427 ft | 2 kts | 96° |
| 2026-05-05 18:57 | 47.45565 | 8.56984 | 1427 ft | 8 kts | 77° |
| 2026-05-05 18:57 | 47.45585 | 8.57005 | 1429 ft | 5 kts | 15° |
| 2026-05-05 18:57 | 47.45643 | 8.57012 | 1431 ft | 8 kts | 347° |
| 2026-05-05 18:57 | 47.45662 | 8.56977 | 1431 ft | 5 kts | 297° |
| 2026-05-05 18:58 | 47.45668 | 8.56924 | 1430 ft | 0 kts | 277° |
| 2026-05-05 18:58 | 47.45669 | 8.56915 | 1430 ft | 3 kts | 276° |
| 2026-05-05 18:58 | 47.45682 | 8.56708 | 1425 ft | 60 kts | 275° |
| 2026-05-05 18:58 | 47.45751 | 8.55654 | 1417 ft | 145 kts | 276° |
| 2026-05-05 18:59 | 47.45881 | 8.53927 | 1962 ft | 175 kts | 274° |
| 2026-05-05 18:59 | 47.45981 | 8.52121 | 3016 ft | 183 kts | 270° |
| 2026-05-05 18:59 | 47.45870 | 8.50145 | 3561 ft | 201 kts | 258° |
| 2026-05-05 18:59 | 47.45552 | 8.48109 | 4361 ft | 203 kts | 255° |
| 2026-05-05 19:00 | 47.45164 | 8.46143 | 5343 ft | 200 kts | 252° |
| 2026-05-05 19:00 | 47.44714 | 8.44218 | 6328 ft | 198 kts | 249° |
| 2026-05-05 19:00 | 47.44173 | 8.42331 | 7154 ft | 204 kts | 244° |
| 2026-05-05 19:00 | 47.43468 | 8.40463 | 7933 ft | 211 kts | 238° |
| 2026-05-05 19:01 | 47.42519 | 8.38753 | 8794 ft | 219 kts | 227° |
| 2026-05-05 19:01 | 47.41325 | 8.37322 | 9702 ft | 227 kts | 207° |
| 2026-05-05 19:01 | 47.39751 | 8.36920 | 10635 ft | 237 kts | 177° |
| 2026-05-05 19:01 | 47.38231 | 8.37864 | 11495 ft | 247 kts | 151° |
| 2026-05-05 19:02 | 47.36768 | 8.39479 | 11860 ft | 282 kts | 141° |
| 2026-05-05 19:02 | 47.35677 | 8.42054 | 11924 ft | 312 kts | 111° |
| 2026-05-05 19:02 | 47.35515 | 8.45317 | 11904 ft | 334 kts | 86° |
| 2026-05-05 19:02 | 47.35847 | 8.48837 | 11891 ft | 365 kts | 83° |
| 2026-05-05 19:03 | 47.36223 | 8.52609 | 11885 ft | 376 kts | 84° |
| 2026-05-05 19:03 | 47.36568 | 8.56442 | 11885 ft | 378 kts | 85° |
| 2026-05-05 19:03 | 47.36886 | 8.60271 | 11968 ft | 381 kts | 85° |
| 2026-05-05 19:03 | 47.37194 | 8.64170 | 12561 ft | 385 kts | 85° |
| 2026-05-05 19:04 | 47.37495 | 8.68102 | 13616 ft | 387 kts | 85° |
| 2026-05-05 19:04 | 47.37795 | 8.72092 | 14339 ft | 398 kts | 85° |
| 2026-05-05 19:04 | 47.38098 | 8.76197 | 14738 ft | 415 kts | 85° |
| 2026-05-05 19:04 | 47.38414 | 8.80493 | 15440 ft | 422 kts | 85° |
| 2026-05-05 19:05 | 47.38732 | 8.84828 | 16230 ft | 428 kts | 85° |
| 2026-05-05 19:05 | 47.39052 | 8.89223 | 16991 ft | 433 kts | 85° |
| 2026-05-05 19:05 | 47.39373 | 8.93660 | 17805 ft | 437 kts | 85° |
| 2026-05-05 19:05 | 47.39705 | 8.98092 | 18528 ft | 442 kts | 84° |
| 2026-05-05 19:06 | 47.40397 | 9.02548 | 19217 ft | 450 kts | 72° |
| 2026-05-05 19:06 | 47.41787 | 9.06702 | 19807 ft | 461 kts | 56° |
| 2026-05-05 19:06 | 47.43979 | 9.10239 | 20380 ft | 471 kts | 39° |
| 2026-05-05 19:06 | 47.46776 | 9.12786 | 21109 ft | 475 kts | 24° |
| 2026-05-05 19:07 | 47.49875 | 9.14550 | 21839 ft | 480 kts | 17° |
| 2026-05-05 19:07 | 47.52036 | 9.15511 | 22305 ft | 483 kts | 15° |
| 2026-05-05 19:07 | 47.56376 | 9.17242 | 23239 ft | 490 kts | 14° |
| 2026-05-05 19:07 | 47.59687 | 9.18584 | 23868 ft | 496 kts | 15° |
| 2026-05-05 19:08 | 47.63009 | 9.20015 | 24455 ft | 501 kts | 16° |
| 2026-05-05 19:08 | 47.66357 | 9.21541 | 25080 ft | 504 kts | 17° |
| 2026-05-05 19:08 | 47.69698 | 9.23124 | 25732 ft | 508 kts | 17° |
| 2026-05-05 19:08 | 47.73014 | 9.24731 | 26272 ft | 512 kts | 17° |
| 2026-05-05 19:09 | 47.76208 | 9.26294 | 26794 ft | 517 kts | 17° |
| 2026-05-05 19:09 | 47.79597 | 9.27951 | 27298 ft | 521 kts | 17° |
| 2026-05-05 19:09 | 47.83126 | 9.29240 | 27822 ft | 523 kts | 8° |
| 2026-05-05 19:09 | 47.86736 | 9.29921 | 28494 ft | 523 kts | 4° |
| 2026-05-05 19:10 | 47.90347 | 9.30370 | 29255 ft | 521 kts | 2° |
| 2026-05-05 19:10 | 47.92743 | 9.30595 | 29724 ft | 520 kts | 1° |
| 2026-05-05 19:10 | 47.96364 | 9.30877 | 30316 ft | 520 kts | 0° |
| 2026-05-05 19:10 | 48.01150 | 9.31213 | 31030 ft | 520 kts | 0° |
| 2026-05-05 19:11 | 48.03585 | 9.31386 | 31366 ft | 520 kts | 0° |
| 2026-05-05 19:11 | 48.08391 | 9.31742 | 31806 ft | 522 kts | 1° |
| 2026-05-05 19:11 | 48.14447 | 9.32221 | 31884 ft | 519 kts | 1° |
| 2026-05-05 19:12 | 48.19236 | 9.32614 | 32318 ft | 520 kts | 1° |
| 2026-05-05 19:12 | 48.21681 | 9.32817 | 32710 ft | 519 kts | 1° |
| 2026-05-05 19:12 | 48.25284 | 9.33116 | 33264 ft | 518 kts | 1° |
| 2026-05-05 19:12 | 48.28883 | 9.33414 | 33718 ft | 519 kts | 2° |
| 2026-05-05 19:13 | 48.32437 | 9.33708 | 33843 ft | 517 kts | 2° |
| 2026-05-05 19:13 | 48.36021 | 9.34005 | 33847 ft | 516 kts | 2° |
| 2026-05-05 19:13 | 48.43191 | 9.34599 | 33845 ft | 516 kts | 2° |
| 2026-05-05 19:14 | 48.50364 | 9.35195 | 33842 ft | 516 kts | 2° |
| 2026-05-05 19:14 | 48.57522 | 9.35792 | 33831 ft | 516 kts | 2° |
| 2026-05-05 19:15 | 48.64704 | 9.36394 | 33828 ft | 516 kts | 2° |
| 2026-05-05 19:15 | 48.71811 | 9.36989 | 33831 ft | 516 kts | 3° |
| 2026-05-05 19:16 | 48.78984 | 9.37592 | 33838 ft | 515 kts | 3° |
| 2026-05-05 19:16 | 48.86099 | 9.38193 | 33835 ft | 515 kts | 3° |
| 2026-05-05 19:17 | 48.93165 | 9.38791 | 33833 ft | 515 kts | 3° |
| 2026-05-05 19:17 | 49.00314 | 9.39397 | 33833 ft | 514 kts | 4° |
| 2026-05-05 19:18 | 49.07457 | 9.40005 | 33832 ft | 514 kts | 4° |
| 2026-05-05 19:18 | 49.14583 | 9.40613 | 33830 ft | 514 kts | 4° |
| 2026-05-05 19:19 | 49.21706 | 9.41222 | 33830 ft | 514 kts | 4° |
| 2026-05-05 19:19 | 49.28536 | 9.41809 | 33831 ft | 514 kts | 4° |
| 2026-05-05 19:20 | 49.35434 | 9.42404 | 33832 ft | 514 kts | 4° |
| 2026-05-05 19:20 | 49.42562 | 9.43018 | 33832 ft | 513 kts | 4° |
| 2026-05-05 19:21 | 49.49691 | 9.43635 | 33829 ft | 513 kts | 4° |
| 2026-05-05 19:21 | 49.56812 | 9.44252 | 33827 ft | 512 kts | 5° |
| 2026-05-05 19:22 | 49.63937 | 9.44873 | 33829 ft | 512 kts | 5° |
| 2026-05-05 19:22 | 49.71055 | 9.45495 | 33829 ft | 512 kts | 5° |
| 2026-05-05 19:23 | 49.78175 | 9.46119 | 33826 ft | 513 kts | 5° |
| 2026-05-05 19:23 | 49.85309 | 9.46744 | 33821 ft | 514 kts | 5° |
| 2026-05-05 19:24 | 49.92463 | 9.47375 | 33824 ft | 515 kts | 5° |
| 2026-05-05 19:24 | 49.99617 | 9.47906 | 33824 ft | 516 kts | 1° |
| 2026-05-05 19:25 | 50.06695 | 9.46087 | 33818 ft | 520 kts | 341° |
| 2026-05-05 19:25 | 50.13068 | 9.40876 | 33819 ft | 522 kts | 324° |
| 2026-05-05 19:26 | 50.18790 | 9.33892 | 33814 ft | 522 kts | 319° |
| 2026-05-05 19:26 | 50.24268 | 9.26631 | 33816 ft | 522 kts | 319° |
| 2026-05-05 19:27 | 50.29841 | 9.19344 | 33810 ft | 522 kts | 319° |
| 2026-05-05 19:27 | 50.35442 | 9.12151 | 33647 ft | 516 kts | 320° |
| 2026-05-05 19:28 | 50.38237 | 9.08582 | 33341 ft | 521 kts | 320° |
| 2026-05-05 19:28 | 50.41052 | 9.04982 | 32851 ft | 523 kts | 320° |
| 2026-05-05 19:28 | 50.43871 | 9.01368 | 32370 ft | 524 kts | 320° |
| 2026-05-05 19:28 | 50.46698 | 8.97736 | 31896 ft | 524 kts | 320° |
| 2026-05-05 19:29 | 50.49482 | 8.94152 | 31440 ft | 525 kts | 320° |
| 2026-05-05 19:29 | 50.52305 | 8.90512 | 31006 ft | 525 kts | 320° |
| 2026-05-05 19:29 | 50.55114 | 8.86941 | 30605 ft | 524 kts | 321° |
| 2026-05-05 19:29 | 50.57990 | 8.83448 | 30207 ft | 522 kts | 322° |
| 2026-05-05 19:30 | 50.60893 | 8.80003 | 29808 ft | 522 kts | 323° |
| 2026-05-05 19:30 | 50.63800 | 8.76572 | 29355 ft | 521 kts | 323° |
| 2026-05-05 19:30 | 50.66685 | 8.73154 | 28899 ft | 519 kts | 323° |
| 2026-05-05 19:30 | 50.69554 | 8.69732 | 28455 ft | 515 kts | 322° |
| 2026-05-05 19:31 | 50.72400 | 8.66315 | 28017 ft | 512 kts | 322° |
| 2026-05-05 19:31 | 50.75218 | 8.62913 | 27597 ft | 508 kts | 322° |
| 2026-05-05 19:31 | 50.78003 | 8.59541 | 27193 ft | 505 kts | 322° |
| 2026-05-05 19:31 | 50.80764 | 8.56188 | 26802 ft | 502 kts | 322° |
| 2026-05-05 19:32 | 50.83520 | 8.52836 | 26427 ft | 499 kts | 322° |
| 2026-05-05 19:32 | 50.86269 | 8.49487 | 26032 ft | 496 kts | 322° |
| 2026-05-05 19:32 | 50.88996 | 8.46161 | 25683 ft | 493 kts | 322° |
| 2026-05-05 19:32 | 50.91707 | 8.42851 | 25320 ft | 490 kts | 322° |
| 2026-05-05 19:33 | 50.94393 | 8.39565 | 24971 ft | 487 kts | 322° |
| 2026-05-05 19:33 | 50.97071 | 8.36287 | 24814 ft | 485 kts | 322° |
| 2026-05-05 19:33 | 50.99746 | 8.33012 | 24812 ft | 484 kts | 322° |
| 2026-05-05 19:33 | 51.02526 | 8.30019 | 24667 ft | 481 kts | 328° |
| 2026-05-05 19:34 | 51.05195 | 8.26885 | 24003 ft | 475 kts | 317° |
| 2026-05-05 19:34 | 51.07462 | 8.23092 | 23250 ft | 471 kts | 309° |
| 2026-05-05 19:34 | 51.09527 | 8.19092 | 22453 ft | 466 kts | 308° |
| 2026-05-05 19:35 | 51.13535 | 8.11112 | 20971 ft | 455 kts | 307° |
| 2026-05-05 19:35 | 51.15494 | 8.07193 | 20268 ft | 450 kts | 307° |
| 2026-05-05 19:35 | 51.17428 | 8.03318 | 19595 ft | 443 kts | 307° |
| 2026-05-05 19:35 | 51.19314 | 7.99534 | 18902 ft | 438 kts | 307° |
| 2026-05-05 19:36 | 51.21202 | 7.95741 | 18204 ft | 434 kts | 307° |
| 2026-05-05 19:36 | 51.23068 | 7.91987 | 17412 ft | 429 kts | 307° |
| 2026-05-05 19:36 | 51.24682 | 7.88069 | 16641 ft | 422 kts | 294° |
| 2026-05-05 19:36 | 51.25530 | 7.83644 | 15902 ft | 415 kts | 278° |
| 2026-05-05 19:37 | 51.25845 | 7.79112 | 15167 ft | 409 kts | 274° |
| 2026-05-05 19:37 | 51.26073 | 7.74611 | 14454 ft | 405 kts | 273° |
| 2026-05-05 19:37 | 51.26284 | 7.70252 | 13981 ft | 383 kts | 273° |
| 2026-05-05 19:37 | 51.26477 | 7.66236 | 13833 ft | 348 kts | 273° |
| 2026-05-05 19:38 | 51.26656 | 7.62560 | 13817 ft | 315 kts | 273° |
| 2026-05-05 19:38 | 51.26768 | 7.59138 | 13816 ft | 303 kts | 267° |
| 2026-05-05 19:38 | 51.26249 | 7.55948 | 13823 ft | 296 kts | 240° |
| 2026-05-05 19:38 | 51.25075 | 7.53281 | 13818 ft | 294 kts | 230° |
| 2026-05-05 19:39 | 51.24136 | 7.50380 | 13821 ft | 298 kts | 252° |
| 2026-05-05 19:39 | 51.23773 | 7.47174 | 13567 ft | 295 kts | 261° |
| 2026-05-05 19:39 | 51.23560 | 7.43872 | 13082 ft | 295 kts | 263° |
| 2026-05-05 19:39 | 51.23362 | 7.40677 | 12661 ft | 295 kts | 263° |
| 2026-05-05 19:40 | 51.23155 | 7.37440 | 12274 ft | 293 kts | 263° |
| 2026-05-05 19:40 | 51.22950 | 7.34208 | 11874 ft | 291 kts | 263° |
| 2026-05-05 19:40 | 51.22743 | 7.31018 | 11477 ft | 290 kts | 263° |
| 2026-05-05 19:40 | 51.22533 | 7.27818 | 11094 ft | 289 kts | 263° |
| 2026-05-05 19:41 | 51.22316 | 7.24656 | 10868 ft | 282 kts | 263° |
| 2026-05-05 19:41 | 51.22103 | 7.21595 | 10831 ft | 275 kts | 263° |
| 2026-05-05 19:41 | 51.21888 | 7.18570 | 10746 ft | 272 kts | 263° |
| 2026-05-05 19:41 | 51.21675 | 7.15588 | 10385 ft | 271 kts | 263° |
| 2026-05-05 19:42 | 51.21459 | 7.12603 | 10048 ft | 269 kts | 263° |
| 2026-05-05 19:42 | 51.21243 | 7.09663 | 9771 ft | 266 kts | 263° |
| 2026-05-05 19:42 | 51.21027 | 7.06744 | 9385 ft | 265 kts | 263° |
| 2026-05-05 19:42 | 51.20809 | 7.03837 | 9002 ft | 264 kts | 263° |
| 2026-05-05 19:43 | 51.20591 | 7.00936 | 8632 ft | 262 kts | 263° |
| 2026-05-05 19:43 | 51.20376 | 6.98066 | 8307 ft | 259 kts | 263° |
| 2026-05-05 19:43 | 51.20164 | 6.95254 | 8102 ft | 252 kts | 263° |
| 2026-05-05 19:43 | 51.19956 | 6.92497 | 7806 ft | 249 kts | 263° |
| 2026-05-05 19:44 | 51.19750 | 6.89762 | 7501 ft | 247 kts | 263° |
| 2026-05-05 19:44 | 51.19546 | 6.87054 | 7177 ft | 246 kts | 263° |
| 2026-05-05 19:44 | 51.19327 | 6.84401 | 6856 ft | 245 kts | 259° |
| 2026-05-05 19:44 | 51.18876 | 6.82183 | 6592 ft | 243 kts | 246° |
| 2026-05-05 19:45 | 51.18163 | 6.79797 | 6291 ft | 242 kts | 243° |
| 2026-05-05 19:45 | 51.17407 | 6.77406 | 5969 ft | 241 kts | 243° |
| 2026-05-05 19:45 | 51.16648 | 6.75018 | 5633 ft | 241 kts | 243° |
| 2026-05-05 19:45 | 51.15890 | 6.72638 | 5315 ft | 240 kts | 243° |
| 2026-05-05 19:46 | 51.15135 | 6.70266 | 4977 ft | 240 kts | 243° |
| 2026-05-05 19:46 | 51.14378 | 6.67892 | 4680 ft | 239 kts | 243° |
| 2026-05-05 19:46 | 51.13621 | 6.65554 | 4375 ft | 237 kts | 243° |
| 2026-05-05 19:46 | 51.12886 | 6.63189 | 3977 ft | 240 kts | 249° |
| 2026-05-05 19:47 | 51.12710 | 6.60578 | 3600 ft | 239 kts | 280° |
| 2026-05-05 19:47 | 51.13389 | 6.58232 | 3285 ft | 233 kts | 312° |
| 2026-05-05 19:47 | 51.14550 | 6.56473 | 3030 ft | 228 kts | 322° |
| 2026-05-05 19:47 | 51.15771 | 6.54992 | 2979 ft | 214 kts | 333° |
| 2026-05-05 19:48 | 51.17149 | 6.54553 | 2986 ft | 200 kts | 12° |
| 2026-05-05 19:48 | 51.18331 | 6.55480 | 3007 ft | 181 kts | 37° |
| 2026-05-05 19:48 | 51.19177 | 6.56862 | 2986 ft | 170 kts | 52° |
| 2026-05-05 19:48 | 51.19892 | 6.58351 | 2944 ft | 169 kts | 51° |
| 2026-05-05 19:49 | 51.20603 | 6.59796 | 2661 ft | 167 kts | 52° |
| 2026-05-05 19:49 | 51.21078 | 6.60793 | 2495 ft | 166 kts | 52° |
| 2026-05-05 19:49 | 51.21986 | 6.62690 | 2201 ft | 160 kts | 52° |
| 2026-05-05 19:49 | 51.22636 | 6.64049 | 1955 ft | 146 kts | 51° |
| 2026-05-05 19:50 | 51.23218 | 6.65265 | 1781 ft | 132 kts | 51° |
| 2026-05-05 19:50 | 51.23761 | 6.66404 | 1602 ft | 126 kts | 50° |
| 2026-05-05 19:50 | 51.24274 | 6.67477 | 1436 ft | 119 kts | 50° |
| 2026-05-05 19:50 | 51.24773 | 6.68522 | 1292 ft | 118 kts | 51° |
| 2026-05-05 19:51 | 51.25273 | 6.69570 | 1121 ft | 119 kts | 51° |
| 2026-05-05 19:51 | 51.25779 | 6.70632 | 957 ft | 121 kts | 50° |
| 2026-05-05 19:51 | 51.26292 | 6.71707 | 772 ft | 123 kts | 50° |
| 2026-05-05 19:51 | 51.26812 | 6.72796 | 594 ft | 122 kts | 50° |
| 2026-05-05 19:52 | 51.27339 | 6.73917 | 424 ft | 128 kts | 49° |
| 2026-05-05 19:52 | 51.27866 | 6.75029 | 256 ft | 124 kts | 48° |
| 2026-05-05 19:52 | 51.28383 | 6.76105 | 139 ft | 119 kts | 48° |
| 2026-05-05 19:52 | 51.28826 | 6.77009 | 132 ft | 80 kts | 53° |
| 2026-05-05 19:53 | 51.28996 | 6.77374 | 135 ft | 27 kts | 53° |
| 2026-05-05 19:53 | 51.29023 | 6.77525 | 132 ft | 15 kts | 109° |
| 2026-05-05 19:53 | 51.28961 | 6.77622 | 135 ft | 9 kts | 143° |
| 2026-05-05 19:53 | 51.28908 | 6.77639 | 135 ft | 7 kts | 202° |
| 2026-05-05 19:54 | 51.28864 | 6.77563 | 136 ft | 13 kts | 233° |
| 2026-05-05 19:54 | 51.28820 | 6.77469 | 136 ft | 8 kts | 233° |
| 2026-05-05 19:54 | 51.28783 | 6.77391 | 136 ft | 7 kts | 233° |
| 2026-05-05 19:54 | 51.28743 | 6.77308 | 136 ft | 12 kts | 232° |
| 2026-05-05 19:55 | 51.28683 | 6.77183 | 136 ft | 16 kts | 232° |
| 2026-05-05 19:55 | 51.28605 | 6.77019 | 135 ft | 21 kts | 233° |
| 2026-05-05 19:55 | 51.28545 | 6.76893 | 134 ft | 7 kts | 233° |
| 2026-05-05 19:55 | 51.28527 | 6.76854 | 134 ft | 0 kts | 233° |
| 2026-05-05 19:56 | 51.28518 | 6.76836 | 132 ft | 7 kts | 233° |
| 2026-05-05 19:56 | 51.28466 | 6.76726 | 123 ft | 16 kts | 232° |
| 2026-05-05 19:56 | 51.28389 | 6.76564 | 124 ft | 21 kts | 233° |
| 2026-05-05 19:56 | 51.28295 | 6.76367 | 124 ft | 24 kts | 232° |
| 2026-05-05 19:57 | 51.28190 | 6.76148 | 135 ft | 26 kts | 233° |
| 2026-05-05 19:57 | 51.28074 | 6.75907 | 136 ft | 29 kts | 233° |
| 2026-05-05 19:57 | 51.28009 | 6.75770 | 136 ft | 2 kts | 233° |
| 2026-05-05 19:57 | 51.27993 | 6.75736 | 136 ft | 6 kts | 233° |
| 2026-05-05 19:58 | 51.27966 | 6.75678 | 135 ft | 0 kts | 233° |
| 2026-05-05 19:58 | 51.27964 | 6.75674 | 135 ft | 3 kts | 233° |
| 2026-05-05 19:58 | 51.27916 | 6.75574 | 132 ft | 15 kts | 232° |
| 2026-05-05 19:58 | 51.27842 | 6.75418 | 126 ft | 16 kts | 233° |
| 2026-05-05 19:59 | 51.27816 | 6.75394 | 128 ft | 7 kts | 192° |
| 2026-05-05 19:59 | 51.27771 | 6.75407 | 127 ft | 6 kts | 154° |
| 2026-05-05 19:59 | 51.27721 | 6.75445 | 124 ft | 9 kts | 154° |
| 2026-05-05 19:59 | 51.27713 | 6.75452 | 131 ft | 0 kts | 154° |
| 2026-05-05 20:00 | 51.27701 | 6.75461 | 133 ft | 0 kts | 154° |
| 2026-05-05 20:00 | 51.27700 | 6.75463 | 133 ft | 1 kts | 146° |
| 2026-05-05 20:00 | 51.27700 | 6.75482 | 126 ft | 1 kts | 90° |
| 2026-05-05 20:00 | 51.27705 | 6.75509 | 131 ft | 2 kts | 64° |
| 2026-05-05 20:01 | 51.27711 | 6.75523 | 129 ft | 1 kts | 59° |
| 2026-05-05 20:01 | 51.27724 | 6.75563 | 133 ft | 1 kts | 63° |
| 2026-05-05 20:01 | 51.27725 | 6.75567 | 134 ft | 1 kts | 63° |
| 2026-05-05 20:01 | 51.27726 | 6.75570 | 133 ft | 0 kts | 63° |
| 2026-05-05 20:02 | 51.27727 | 6.75574 | 133 ft | 3 kts | 63° |
| 2026-05-05 20:02 | 51.27730 | 6.75581 | 132 ft | 0 kts | 63° |